sensor_id;sensor_type;location;lat;lon;timestamp;P1;durP1;ratioP1;P2;durP2;ratioP2
16346;SDS011;8283;48.504;13.734;2023-12-07T00:02:11;6.40;;;4.50;;
16346;SDS011;8283;48.504;13.734;2023-12-07T00:04:31;5.88;;;4.10;;
16346;SDS011;8283;48.504;13.734;2023-12-07T00:06:50;6.70;;;4.32;;
16346;SDS011;8283;48.504;13.734;2023-12-07T00:09:10;5.70;;;4.00;;
16346;SDS011;8283;48.504;13.734;2023-12-07T00:11:29;6.15;;;4.10;;
16346;SDS011;8283;48.504;13.734;2023-12-07T00:13:49;6.28;;;3.97;;
16346;SDS011;8283;48.504;13.734;2023-12-07T00:16:08;6.07;;;3.97;;
16346;SDS011;8283;48.504;13.734;2023-12-07T00:18:27;6.45;;;4.07;;
16346;SDS011;8283;48.504;13.734;2023-12-07T00:20:46;5.25;;;3.72;;
16346;SDS011;8283;48.504;13.734;2023-12-07T00:23:05;6.80;;;4.25;;
16346;SDS011;8283;48.504;13.734;2023-12-07T00:25:25;6.95;;;4.40;;
16346;SDS011;8283;48.504;13.734;2023-12-07T00:27:44;7.78;;;4.43;;
16346;SDS011;8283;48.504;13.734;2023-12-07T00:30:04;8.00;;;4.75;;
16346;SDS011;8283;48.504;13.734;2023-12-07T00:32:23;8.40;;;5.28;;
16346;SDS011;8283;48.504;13.734;2023-12-07T00:34:42;7.78;;;4.95;;
16346;SDS011;8283;48.504;13.734;2023-12-07T00:37:02;6.93;;;4.57;;
16346;SDS011;8283;48.504;13.734;2023-12-07T00:39:22;6.85;;;4.53;;
16346;SDS011;8283;48.504;13.734;2023-12-07T00:41:41;7.53;;;5.00;;
16346;SDS011;8283;48.504;13.734;2023-12-07T00:44:00;7.50;;;4.75;;
16346;SDS011;8283;48.504;13.734;2023-12-07T00:46:19;7.60;;;4.70;;
16346;SDS011;8283;48.504;13.734;2023-12-07T00:48:39;8.65;;;5.32;;
16346;SDS011;8283;48.504;13.734;2023-12-07T00:50:58;8.02;;;5.25;;
16346;SDS011;8283;48.504;13.734;2023-12-07T00:53:17;7.53;;;4.32;;
16346;SDS011;8283;48.504;13.734;2023-12-07T00:55:36;9.00;;;5.53;;
16346;SDS011;8283;48.504;13.734;2023-12-07T00:57:56;7.00;;;5.32;;
16346;SDS011;8283;48.504;13.734;2023-12-07T01:00:15;6.80;;;4.50;;
16346;SDS011;8283;48.504;13.734;2023-12-07T01:02:34;7.68;;;5.10;;
16346;SDS011;8283;48.504;13.734;2023-12-07T01:04:54;7.60;;;4.88;;
16346;SDS011;8283;48.504;13.734;2023-12-07T01:07:14;7.35;;;4.63;;
16346;SDS011;8283;48.504;13.734;2023-12-07T01:09:34;7.53;;;5.07;;
16346;SDS011;8283;48.504;13.734;2023-12-07T01:11:55;6.88;;;4.15;;
16346;SDS011;8283;48.504;13.734;2023-12-07T01:14:14;7.95;;;4.82;;
16346;SDS011;8283;48.504;13.734;2023-12-07T01:16:35;7.73;;;4.80;;
16346;SDS011;8283;48.504;13.734;2023-12-07T01:18:54;6.18;;;4.03;;
16346;SDS011;8283;48.504;13.734;2023-12-07T01:21:14;6.53;;;4.40;;
16346;SDS011;8283;48.504;13.734;2023-12-07T01:23:33;8.02;;;5.53;;
16346;SDS011;8283;48.504;13.734;2023-12-07T01:25:53;9.30;;;5.50;;
16346;SDS011;8283;48.504;13.734;2023-12-07T01:28:12;9.25;;;5.47;;
16346;SDS011;8283;48.504;13.734;2023-12-07T01:30:32;8.00;;;4.68;;
16346;SDS011;8283;48.504;13.734;2023-12-07T01:32:51;9.25;;;5.63;;
16346;SDS011;8283;48.504;13.734;2023-12-07T01:35:10;6.85;;;4.43;;
16346;SDS011;8283;48.504;13.734;2023-12-07T01:37:31;8.07;;;5.28;;
16346;SDS011;8283;48.504;13.734;2023-12-07T01:39:50;9.00;;;4.97;;
16346;SDS011;8283;48.504;13.734;2023-12-07T01:42:10;8.30;;;5.22;;
16346;SDS011;8283;48.504;13.734;2023-12-07T01:44:31;8.35;;;4.95;;
16346;SDS011;8283;48.504;13.734;2023-12-07T01:46:50;7.75;;;4.72;;
16346;SDS011;8283;48.504;13.734;2023-12-07T01:49:09;7.60;;;4.97;;
16346;SDS011;8283;48.504;13.734;2023-12-07T01:51:29;9.30;;;5.85;;
16346;SDS011;8283;48.504;13.734;2023-12-07T01:53:48;7.05;;;5.03;;
16346;SDS011;8283;48.504;13.734;2023-12-07T01:56:09;6.47;;;4.97;;
16346;SDS011;8283;48.504;13.734;2023-12-07T01:58:29;8.57;;;5.13;;
16346;SDS011;8283;48.504;13.734;2023-12-07T02:00:50;9.27;;;6.00;;
16346;SDS011;8283;48.504;13.734;2023-12-07T02:03:09;7.53;;;4.95;;
16346;SDS011;8283;48.504;13.734;2023-12-07T02:05:29;7.78;;;5.25;;
16346;SDS011;8283;48.504;13.734;2023-12-07T02:07:50;7.68;;;4.82;;
16346;SDS011;8283;48.504;13.734;2023-12-07T02:10:12;8.43;;;5.55;;
16346;SDS011;8283;48.504;13.734;2023-12-07T02:12:32;8.70;;;5.43;;
16346;SDS011;8283;48.504;13.734;2023-12-07T02:14:52;6.67;;;4.63;;
16346;SDS011;8283;48.504;13.734;2023-12-07T02:17:19;8.43;;;5.10;;
16346;SDS011;8283;48.504;13.734;2023-12-07T02:22:27;7.75;;;5.82;;
16346;SDS011;8283;48.504;13.734;2023-12-07T02:29:55;7.30;;;4.78;;
16346;SDS011;8283;48.504;13.734;2023-12-07T02:32:14;7.80;;;5.03;;
16346;SDS011;8283;48.504;13.734;2023-12-07T02:34:33;8.40;;;4.95;;
16346;SDS011;8283;48.504;13.734;2023-12-07T02:36:53;9.90;;;5.30;;
16346;SDS011;8283;48.504;13.734;2023-12-07T02:39:15;9.05;;;5.57;;
16346;SDS011;8283;48.504;13.734;2023-12-07T02:41:35;8.38;;;4.72;;
16346;SDS011;8283;48.504;13.734;2023-12-07T02:43:56;6.70;;;4.30;;
16346;SDS011;8283;48.504;13.734;2023-12-07T02:46:16;7.43;;;4.65;;
16346;SDS011;8283;48.504;13.734;2023-12-07T02:48:35;8.40;;;5.28;;
16346;SDS011;8283;48.504;13.734;2023-12-07T02:50:55;9.63;;;5.50;;
16346;SDS011;8283;48.504;13.734;2023-12-07T02:53:14;8.30;;;5.10;;
16346;SDS011;8283;48.504;13.734;2023-12-07T02:55:34;8.02;;;5.35;;
16346;SDS011;8283;48.504;13.734;2023-12-07T02:57:53;7.47;;;5.13;;
16346;SDS011;8283;48.504;13.734;2023-12-07T03:00:13;7.07;;;4.50;;
16346;SDS011;8283;48.504;13.734;2023-12-07T03:02:37;8.60;;;5.05;;
16346;SDS011;8283;48.504;13.734;2023-12-07T03:04:57;8.23;;;5.05;;
16346;SDS011;8283;48.504;13.734;2023-12-07T03:07:16;7.25;;;4.95;;
16346;SDS011;8283;48.504;13.734;2023-12-07T03:09:35;8.05;;;4.97;;
16346;SDS011;8283;48.504;13.734;2023-12-07T03:11:55;7.50;;;4.63;;
16346;SDS011;8283;48.504;13.734;2023-12-07T03:14:14;8.15;;;4.95;;
16346;SDS011;8283;48.504;13.734;2023-12-07T03:16:34;8.05;;;4.88;;
16346;SDS011;8283;48.504;13.734;2023-12-07T03:18:53;8.57;;;5.78;;
16346;SDS011;8283;48.504;13.734;2023-12-07T03:21:12;9.35;;;5.47;;
16346;SDS011;8283;48.504;13.734;2023-12-07T03:23:31;7.90;;;5.03;;
16346;SDS011;8283;48.504;13.734;2023-12-07T03:25:51;8.88;;;5.55;;
16346;SDS011;8283;48.504;13.734;2023-12-07T03:28:10;8.13;;;5.72;;
16346;SDS011;8283;48.504;13.734;2023-12-07T03:30:29;8.93;;;5.22;;
16346;SDS011;8283;48.504;13.734;2023-12-07T03:32:48;9.25;;;4.75;;
16346;SDS011;8283;48.504;13.734;2023-12-07T03:35:07;7.80;;;5.07;;
16346;SDS011;8283;48.504;13.734;2023-12-07T03:37:27;8.68;;;5.07;;
16346;SDS011;8283;48.504;13.734;2023-12-07T03:39:46;8.57;;;4.70;;
16346;SDS011;8283;48.504;13.734;2023-12-07T03:42:06;7.63;;;4.68;;
16346;SDS011;8283;48.504;13.734;2023-12-07T03:44:26;8.90;;;5.10;;
16346;SDS011;8283;48.504;13.734;2023-12-07T03:46:45;7.50;;;4.80;;
16346;SDS011;8283;48.504;13.734;2023-12-07T03:49:04;8.02;;;4.63;;
16346;SDS011;8283;48.504;13.734;2023-12-07T03:51:24;8.73;;;5.72;;
16346;SDS011;8283;48.504;13.734;2023-12-07T03:53:43;8.32;;;5.55;;
16346;SDS011;8283;48.504;13.734;2023-12-07T03:56:02;6.97;;;4.60;;
16346;SDS011;8283;48.504;13.734;2023-12-07T03:58:22;8.15;;;4.85;;
16346;SDS011;8283;48.504;13.734;2023-12-07T04:00:42;7.72;;;4.90;;
16346;SDS011;8283;48.504;13.734;2023-12-07T04:03:01;9.27;;;5.78;;
16346;SDS011;8283;48.504;13.734;2023-12-07T04:05:21;10.00;;;5.90;;
16346;SDS011;8283;48.504;13.734;2023-12-07T04:07:40;9.07;;;5.20;;
16346;SDS011;8283;48.504;13.734;2023-12-07T04:10:00;7.00;;;4.85;;
16346;SDS011;8283;48.504;13.734;2023-12-07T04:12:19;7.68;;;4.80;;
16346;SDS011;8283;48.504;13.734;2023-12-07T04:14:39;7.50;;;5.28;;
16346;SDS011;8283;48.504;13.734;2023-12-07T04:16:58;7.05;;;5.57;;
16346;SDS011;8283;48.504;13.734;2023-12-07T04:19:17;8.02;;;4.97;;
16346;SDS011;8283;48.504;13.734;2023-12-07T04:21:36;10.25;;;5.70;;
16346;SDS011;8283;48.504;13.734;2023-12-07T04:23:56;8.40;;;5.20;;
16346;SDS011;8283;48.504;13.734;2023-12-07T04:26:16;8.27;;;4.53;;
16346;SDS011;8283;48.504;13.734;2023-12-07T04:28:35;7.40;;;5.10;;
16346;SDS011;8283;48.504;13.734;2023-12-07T04:30:55;7.05;;;4.93;;
16346;SDS011;8283;48.504;13.734;2023-12-07T04:33:14;8.93;;;5.35;;
16346;SDS011;8283;48.504;13.734;2023-12-07T04:35:34;7.97;;;5.15;;
16346;SDS011;8283;48.504;13.734;2023-12-07T04:37:53;8.13;;;4.78;;
16346;SDS011;8283;48.504;13.734;2023-12-07T04:40:12;9.02;;;4.82;;
16346;SDS011;8283;48.504;13.734;2023-12-07T04:42:32;7.95;;;4.93;;
16346;SDS011;8283;48.504;13.734;2023-12-07T04:44:51;7.63;;;5.07;;
16346;SDS011;8283;48.504;13.734;2023-12-07T04:47:10;7.05;;;4.70;;
16346;SDS011;8283;48.504;13.734;2023-12-07T04:49:30;9.07;;;5.47;;
16346;SDS011;8283;48.504;13.734;2023-12-07T04:51:49;8.60;;;4.97;;
16346;SDS011;8283;48.504;13.734;2023-12-07T04:54:08;9.40;;;5.45;;
16346;SDS011;8283;48.504;13.734;2023-12-07T04:56:28;8.85;;;4.88;;
16346;SDS011;8283;48.504;13.734;2023-12-07T04:58:47;7.65;;;4.80;;
16346;SDS011;8283;48.504;13.734;2023-12-07T05:01:06;6.80;;;4.55;;
16346;SDS011;8283;48.504;13.734;2023-12-07T05:03:25;10.25;;;5.35;;
16346;SDS011;8283;48.504;13.734;2023-12-07T05:05:45;7.95;;;4.70;;
16346;SDS011;8283;48.504;13.734;2023-12-07T05:08:05;9.23;;;5.18;;
16346;SDS011;8283;48.504;13.734;2023-12-07T05:10:24;8.05;;;4.90;;
16346;SDS011;8283;48.504;13.734;2023-12-07T05:12:44;7.53;;;4.90;;
16346;SDS011;8283;48.504;13.734;2023-12-07T05:15:04;8.88;;;5.15;;
16346;SDS011;8283;48.504;13.734;2023-12-07T05:17:25;8.30;;;4.95;;
16346;SDS011;8283;48.504;13.734;2023-12-07T05:19:44;6.85;;;4.88;;
16346;SDS011;8283;48.504;13.734;2023-12-07T05:22:04;8.45;;;5.07;;
16346;SDS011;8283;48.504;13.734;2023-12-07T05:24:23;6.55;;;4.47;;
16346;SDS011;8283;48.504;13.734;2023-12-07T05:26:43;9.20;;;5.00;;
16346;SDS011;8283;48.504;13.734;2023-12-07T05:29:04;7.25;;;4.90;;
16346;SDS011;8283;48.504;13.734;2023-12-07T05:31:24;8.82;;;5.20;;
16346;SDS011;8283;48.504;13.734;2023-12-07T05:33:44;8.18;;;5.30;;
16346;SDS011;8283;48.504;13.734;2023-12-07T05:36:03;10.45;;;5.45;;
16346;SDS011;8283;48.504;13.734;2023-12-07T05:38:23;7.82;;;4.82;;
16346;SDS011;8283;48.504;13.734;2023-12-07T05:40:42;7.72;;;4.88;;
16346;SDS011;8283;48.504;13.734;2023-12-07T05:43:04;7.68;;;4.95;;
16346;SDS011;8283;48.504;13.734;2023-12-07T05:45:23;9.50;;;4.85;;
16346;SDS011;8283;48.504;13.734;2023-12-07T05:47:43;8.10;;;5.00;;
16346;SDS011;8283;48.504;13.734;2023-12-07T05:50:02;9.55;;;4.90;;
16346;SDS011;8283;48.504;13.734;2023-12-07T05:52:22;7.13;;;4.78;;
16346;SDS011;8283;48.504;13.734;2023-12-07T05:54:41;7.38;;;4.93;;
16346;SDS011;8283;48.504;13.734;2023-12-07T05:57:05;7.65;;;4.70;;
16346;SDS011;8283;48.504;13.734;2023-12-07T05:59:24;8.70;;;4.97;;
16346;SDS011;8283;48.504;13.734;2023-12-07T06:01:44;7.28;;;4.57;;
16346;SDS011;8283;48.504;13.734;2023-12-07T06:04:03;8.48;;;5.18;;
16346;SDS011;8283;48.504;13.734;2023-12-07T06:06:24;8.65;;;4.75;;
16346;SDS011;8283;48.504;13.734;2023-12-07T06:08:43;9.13;;;4.85;;
16346;SDS011;8283;48.504;13.734;2023-12-07T06:11:03;8.55;;;4.80;;
16346;SDS011;8283;48.504;13.734;2023-12-07T06:13:23;9.07;;;5.20;;
16346;SDS011;8283;48.504;13.734;2023-12-07T06:15:42;7.97;;;5.25;;
16346;SDS011;8283;48.504;13.734;2023-12-07T06:18:02;7.22;;;5.22;;
16346;SDS011;8283;48.504;13.734;2023-12-07T06:20:24;9.90;;;5.35;;
16346;SDS011;8283;48.504;13.734;2023-12-07T06:22:44;8.38;;;5.00;;
16346;SDS011;8283;48.504;13.734;2023-12-07T06:25:04;8.50;;;4.93;;
16346;SDS011;8283;48.504;13.734;2023-12-07T06:27:23;8.23;;;4.97;;
16346;SDS011;8283;48.504;13.734;2023-12-07T06:29:42;10.98;;;5.85;;
16346;SDS011;8283;48.504;13.734;2023-12-07T06:32:02;10.82;;;5.82;;
16346;SDS011;8283;48.504;13.734;2023-12-07T06:34:22;10.73;;;6.30;;
16346;SDS011;8283;48.504;13.734;2023-12-07T06:36:41;9.88;;;6.55;;
16346;SDS011;8283;48.504;13.734;2023-12-07T06:39:00;9.18;;;5.88;;
16346;SDS011;8283;48.504;13.734;2023-12-07T06:41:20;10.65;;;5.47;;
16346;SDS011;8283;48.504;13.734;2023-12-07T06:43:40;7.72;;;5.22;;
16346;SDS011;8283;48.504;13.734;2023-12-07T06:45:59;7.60;;;4.90;;
16346;SDS011;8283;48.504;13.734;2023-12-07T06:48:18;7.60;;;5.03;;
16346;SDS011;8283;48.504;13.734;2023-12-07T06:50:38;7.13;;;4.82;;
16346;SDS011;8283;48.504;13.734;2023-12-07T06:52:59;9.07;;;5.57;;
16346;SDS011;8283;48.504;13.734;2023-12-07T06:55:18;7.65;;;4.88;;
16346;SDS011;8283;48.504;13.734;2023-12-07T06:57:38;8.13;;;5.53;;
16346;SDS011;8283;48.504;13.734;2023-12-07T06:59:58;8.35;;;5.03;;
16346;SDS011;8283;48.504;13.734;2023-12-07T07:02:17;9.65;;;6.10;;
16346;SDS011;8283;48.504;13.734;2023-12-07T07:04:36;8.88;;;5.25;;
16346;SDS011;8283;48.504;13.734;2023-12-07T07:06:55;11.63;;;6.45;;
16346;SDS011;8283;48.504;13.734;2023-12-07T07:09:15;9.10;;;5.70;;
16346;SDS011;8283;48.504;13.734;2023-12-07T07:11:34;10.23;;;5.65;;
16346;SDS011;8283;48.504;13.734;2023-12-07T07:13:54;8.32;;;5.47;;
16346;SDS011;8283;48.504;13.734;2023-12-07T07:16:13;9.40;;;5.35;;
16346;SDS011;8283;48.504;13.734;2023-12-07T07:18:33;9.00;;;5.00;;
16346;SDS011;8283;48.504;13.734;2023-12-07T07:20:52;10.90;;;5.68;;
16346;SDS011;8283;48.504;13.734;2023-12-07T07:23:11;11.45;;;5.25;;
16346;SDS011;8283;48.504;13.734;2023-12-07T07:25:30;8.98;;;5.07;;
16346;SDS011;8283;48.504;13.734;2023-12-07T07:27:50;8.48;;;4.68;;
16346;SDS011;8283;48.504;13.734;2023-12-07T07:30:11;9.07;;;5.80;;
16346;SDS011;8283;48.504;13.734;2023-12-07T07:32:30;7.93;;;4.90;;
16346;SDS011;8283;48.504;13.734;2023-12-07T07:34:49;7.03;;;5.03;;
16346;SDS011;8283;48.504;13.734;2023-12-07T07:37:09;8.68;;;4.82;;
16346;SDS011;8283;48.504;13.734;2023-12-07T07:39:28;9.20;;;5.05;;
16346;SDS011;8283;48.504;13.734;2023-12-07T07:41:47;8.52;;;5.20;;
16346;SDS011;8283;48.504;13.734;2023-12-07T07:44:07;8.43;;;5.75;;
16346;SDS011;8283;48.504;13.734;2023-12-07T07:46:26;8.15;;;5.05;;
16346;SDS011;8283;48.504;13.734;2023-12-07T07:48:45;9.77;;;5.53;;
16346;SDS011;8283;48.504;13.734;2023-12-07T07:51:05;9.00;;;6.00;;
16346;SDS011;8283;48.504;13.734;2023-12-07T07:53:24;9.25;;;5.63;;
16346;SDS011;8283;48.504;13.734;2023-12-07T07:55:43;9.73;;;6.22;;
16346;SDS011;8283;48.504;13.734;2023-12-07T07:58:02;9.68;;;6.28;;
16346;SDS011;8283;48.504;13.734;2023-12-07T08:00:21;12.43;;;6.97;;
16346;SDS011;8283;48.504;13.734;2023-12-07T08:02:44;10.65;;;5.75;;
16346;SDS011;8283;48.504;13.734;2023-12-07T08:05:05;10.30;;;5.87;;
16346;SDS011;8283;48.504;13.734;2023-12-07T08:07:24;9.68;;;5.93;;
16346;SDS011;8283;48.504;13.734;2023-12-07T08:09:43;10.32;;;5.32;;
16346;SDS011;8283;48.504;13.734;2023-12-07T08:12:02;9.85;;;5.63;;
16346;SDS011;8283;48.504;13.734;2023-12-07T08:14:22;8.70;;;5.30;;
16346;SDS011;8283;48.504;13.734;2023-12-07T08:16:42;8.48;;;5.20;;
16346;SDS011;8283;48.504;13.734;2023-12-07T08:19:05;10.50;;;5.03;;
16346;SDS011;8283;48.504;13.734;2023-12-07T08:21:24;9.63;;;5.30;;
16346;SDS011;8283;48.504;13.734;2023-12-07T08:23:44;7.82;;;4.90;;
16346;SDS011;8283;48.504;13.734;2023-12-07T08:26:03;9.10;;;5.80;;
16346;SDS011;8283;48.504;13.734;2023-12-07T08:28:22;10.40;;;5.82;;
16346;SDS011;8283;48.504;13.734;2023-12-07T08:30:42;10.55;;;6.30;;
16346;SDS011;8283;48.504;13.734;2023-12-07T08:33:01;10.45;;;6.20;;
16346;SDS011;8283;48.504;13.734;2023-12-07T08:35:21;10.75;;;6.50;;
16346;SDS011;8283;48.504;13.734;2023-12-07T08:37:40;10.18;;;6.40;;
16346;SDS011;8283;48.504;13.734;2023-12-07T08:40:00;10.07;;;6.40;;
16346;SDS011;8283;48.504;13.734;2023-12-07T08:42:19;8.73;;;5.55;;
16346;SDS011;8283;48.504;13.734;2023-12-07T08:44:38;10.73;;;5.30;;
16346;SDS011;8283;48.504;13.734;2023-12-07T08:46:57;8.43;;;5.10;;
16346;SDS011;8283;48.504;13.734;2023-12-07T08:49:16;8.82;;;4.70;;
16346;SDS011;8283;48.504;13.734;2023-12-07T08:51:36;10.73;;;5.88;;
16346;SDS011;8283;48.504;13.734;2023-12-07T08:53:55;8.57;;;5.78;;
16346;SDS011;8283;48.504;13.734;2023-12-07T08:56:15;10.63;;;6.03;;
16346;SDS011;8283;48.504;13.734;2023-12-07T08:58:34;9.98;;;5.65;;
16346;SDS011;8283;48.504;13.734;2023-12-07T09:00:54;8.40;;;5.68;;
16346;SDS011;8283;48.504;13.734;2023-12-07T09:03:14;11.82;;;7.22;;
16346;SDS011;8283;48.504;13.734;2023-12-07T09:05:33;8.48;;;5.55;;
16346;SDS011;8283;48.504;13.734;2023-12-07T09:07:52;8.77;;;5.68;;
16346;SDS011;8283;48.504;13.734;2023-12-07T09:10:12;11.02;;;6.07;;
16346;SDS011;8283;48.504;13.734;2023-12-07T09:12:31;9.13;;;6.13;;
16346;SDS011;8283;48.504;13.734;2023-12-07T09:14:51;9.05;;;5.80;;
16346;SDS011;8283;48.504;13.734;2023-12-07T09:17:10;9.75;;;5.97;;
16346;SDS011;8283;48.504;13.734;2023-12-07T09:19:29;9.80;;;5.78;;
16346;SDS011;8283;48.504;13.734;2023-12-07T09:21:48;10.55;;;6.00;;
16346;SDS011;8283;48.504;13.734;2023-12-07T09:24:08;9.63;;;5.75;;
16346;SDS011;8283;48.504;13.734;2023-12-07T09:26:28;9.32;;;6.03;;
16346;SDS011;8283;48.504;13.734;2023-12-07T09:28:47;8.63;;;5.78;;
16346;SDS011;8283;48.504;13.734;2023-12-07T09:31:06;9.52;;;6.03;;
16346;SDS011;8283;48.504;13.734;2023-12-07T09:33:26;9.75;;;6.10;;
16346;SDS011;8283;48.504;13.734;2023-12-07T09:35:45;8.43;;;5.68;;
16346;SDS011;8283;48.504;13.734;2023-12-07T09:38:05;7.85;;;5.40;;
16346;SDS011;8283;48.504;13.734;2023-12-07T09:40:25;8.55;;;5.10;;
16346;SDS011;8283;48.504;13.734;2023-12-07T09:42:46;11.70;;;6.10;;
16346;SDS011;8283;48.504;13.734;2023-12-07T09:45:06;9.63;;;6.32;;
16346;SDS011;8283;48.504;13.734;2023-12-07T09:47:27;10.32;;;5.47;;
16346;SDS011;8283;48.504;13.734;2023-12-07T09:49:48;8.90;;;5.38;;
16346;SDS011;8283;48.504;13.734;2023-12-07T09:52:07;12.35;;;6.13;;
16346;SDS011;8283;48.504;13.734;2023-12-07T09:54:29;9.95;;;5.25;;
16346;SDS011;8283;48.504;13.734;2023-12-07T09:56:49;8.85;;;5.50;;
16346;SDS011;8283;48.504;13.734;2023-12-07T09:59:12;10.35;;;5.95;;
16346;SDS011;8283;48.504;13.734;2023-12-07T10:01:31;11.38;;;6.03;;
16346;SDS011;8283;48.504;13.734;2023-12-07T10:06:44;9.63;;;5.60;;
16346;SDS011;8283;48.504;13.734;2023-12-07T10:09:04;9.05;;;5.95;;
16346;SDS011;8283;48.504;13.734;2023-12-07T10:11:24;11.07;;;6.20;;
16346;SDS011;8283;48.504;13.734;2023-12-07T10:13:43;10.40;;;6.90;;
16346;SDS011;8283;48.504;13.734;2023-12-07T10:16:09;7.93;;;5.70;;
16346;SDS011;8283;48.504;13.734;2023-12-07T10:18:37;10.52;;;6.85;;
16346;SDS011;8283;48.504;13.734;2023-12-07T10:20:58;10.80;;;6.75;;
16346;SDS011;8283;48.504;13.734;2023-12-07T10:23:18;8.35;;;5.63;;
16346;SDS011;8283;48.504;13.734;2023-12-07T10:27:57;11.80;;;6.25;;
16346;SDS011;8283;48.504;13.734;2023-12-07T10:30:17;9.05;;;5.88;;
16346;SDS011;8283;48.504;13.734;2023-12-07T10:32:42;11.85;;;7.25;;
16346;SDS011;8283;48.504;13.734;2023-12-07T10:35:02;9.05;;;5.85;;
16346;SDS011;8283;48.504;13.734;2023-12-07T10:37:21;10.95;;;6.50;;
16346;SDS011;8283;48.504;13.734;2023-12-07T10:39:41;7.47;;;5.68;;
16346;SDS011;8283;48.504;13.734;2023-12-07T10:42:01;7.05;;;5.00;;
16346;SDS011;8283;48.504;13.734;2023-12-07T10:44:21;10.05;;;6.10;;
16346;SDS011;8283;48.504;13.734;2023-12-07T10:46:45;8.23;;;5.85;;
16346;SDS011;8283;48.504;13.734;2023-12-07T10:49:05;8.43;;;5.33;;
16346;SDS011;8283;48.504;13.734;2023-12-07T10:51:31;9.20;;;5.72;;
16346;SDS011;8283;48.504;13.734;2023-12-07T10:53:56;9.30;;;5.82;;
16346;SDS011;8283;48.504;13.734;2023-12-07T10:56:20;10.45;;;6.25;;
16346;SDS011;8283;48.504;13.734;2023-12-07T11:01:08;7.00;;;4.93;;
16346;SDS011;8283;48.504;13.734;2023-12-07T11:03:28;9.52;;;5.57;;
16346;SDS011;8283;48.504;13.734;2023-12-07T11:05:51;9.90;;;5.90;;
16346;SDS011;8283;48.504;13.734;2023-12-07T11:08:11;8.88;;;5.50;;
16346;SDS011;8283;48.504;13.734;2023-12-07T11:11:07;8.85;;;5.90;;
16346;SDS011;8283;48.504;13.734;2023-12-07T11:13:33;7.40;;;5.65;;
16346;SDS011;8283;48.504;13.734;2023-12-07T11:15:54;11.95;;;7.07;;
16346;SDS011;8283;48.504;13.734;2023-12-07T11:18:14;10.20;;;6.77;;
16346;SDS011;8283;48.504;13.734;2023-12-07T11:20:41;12.52;;;8.10;;
16346;SDS011;8283;48.504;13.734;2023-12-07T11:23:07;11.55;;;7.60;;
16346;SDS011;8283;48.504;13.734;2023-12-07T11:25:27;13.07;;;8.13;;
16346;SDS011;8283;48.504;13.734;2023-12-07T11:27:46;15.02;;;7.85;;
16346;SDS011;8283;48.504;13.734;2023-12-07T11:30:06;15.50;;;8.23;;
16346;SDS011;8283;48.504;13.734;2023-12-07T11:32:26;14.55;;;8.98;;
16346;SDS011;8283;48.504;13.734;2023-12-07T11:34:46;13.00;;;8.23;;
16346;SDS011;8283;48.504;13.734;2023-12-07T11:37:06;15.70;;;8.07;;
16346;SDS011;8283;48.504;13.734;2023-12-07T11:39:26;14.50;;;7.63;;
16346;SDS011;8283;48.504;13.734;2023-12-07T11:41:49;13.25;;;7.57;;
16346;SDS011;8283;48.504;13.734;2023-12-07T11:44:14;12.10;;;7.97;;
16346;SDS011;8283;48.504;13.734;2023-12-07T11:46:37;10.95;;;7.13;;
16346;SDS011;8283;48.504;13.734;2023-12-07T11:48:57;11.82;;;7.20;;
16346;SDS011;8283;48.504;13.734;2023-12-07T11:51:18;13.13;;;7.72;;
16346;SDS011;8283;48.504;13.734;2023-12-07T11:53:37;13.13;;;8.73;;
16346;SDS011;8283;48.504;13.734;2023-12-07T11:55:57;19.20;;;11.38;;
16346;SDS011;8283;48.504;13.734;2023-12-07T11:58:18;18.08;;;11.18;;
16346;SDS011;8283;48.504;13.734;2023-12-07T12:00:39;15.98;;;9.65;;
16346;SDS011;8283;48.504;13.734;2023-12-07T12:02:58;16.25;;;9.82;;
16346;SDS011;8283;48.504;13.734;2023-12-07T12:05:18;14.55;;;9.77;;
16346;SDS011;8283;48.504;13.734;2023-12-07T12:07:37;12.07;;;8.27;;
16346;SDS011;8283;48.504;13.734;2023-12-07T12:09:56;14.00;;;7.57;;
16346;SDS011;8283;48.504;13.734;2023-12-07T12:12:15;12.48;;;7.78;;
16346;SDS011;8283;48.504;13.734;2023-12-07T12:14:35;12.52;;;8.00;;
16346;SDS011;8283;48.504;13.734;2023-12-07T12:16:55;11.90;;;7.88;;
16346;SDS011;8283;48.504;13.734;2023-12-07T12:19:14;13.10;;;7.85;;
16346;SDS011;8283;48.504;13.734;2023-12-07T12:21:34;13.00;;;8.05;;
16346;SDS011;8283;48.504;13.734;2023-12-07T12:23:54;13.52;;;7.95;;
16346;SDS011;8283;48.504;13.734;2023-12-07T12:26:13;12.88;;;7.68;;
16346;SDS011;8283;48.504;13.734;2023-12-07T12:28:33;13.20;;;8.50;;
16346;SDS011;8283;48.504;13.734;2023-12-07T12:30:56;11.40;;;7.70;;
16346;SDS011;8283;48.504;13.734;2023-12-07T12:33:15;11.88;;;7.95;;
16346;SDS011;8283;48.504;13.734;2023-12-07T12:35:35;12.40;;;7.72;;
16346;SDS011;8283;48.504;13.734;2023-12-07T12:37:55;10.63;;;7.20;;
16346;SDS011;8283;48.504;13.734;2023-12-07T12:40:15;13.85;;;7.78;;
16346;SDS011;8283;48.504;13.734;2023-12-07T12:42:36;12.52;;;8.18;;
16346;SDS011;8283;48.504;13.734;2023-12-07T12:44:56;13.75;;;8.30;;
16346;SDS011;8283;48.504;13.734;2023-12-07T12:47:16;13.02;;;7.70;;
16346;SDS011;8283;48.504;13.734;2023-12-07T12:49:35;12.85;;;7.50;;
16346;SDS011;8283;48.504;13.734;2023-12-07T12:51:55;16.60;;;8.67;;
16346;SDS011;8283;48.504;13.734;2023-12-07T12:54:15;15.45;;;8.18;;
16346;SDS011;8283;48.504;13.734;2023-12-07T12:56:34;13.35;;;7.97;;
16346;SDS011;8283;48.504;13.734;2023-12-07T12:58:54;12.50;;;7.68;;
16346;SDS011;8283;48.504;13.734;2023-12-07T13:01:17;13.73;;;7.80;;
16346;SDS011;8283;48.504;13.734;2023-12-07T13:03:37;14.60;;;6.88;;
16346;SDS011;8283;48.504;13.734;2023-12-07T13:05:56;12.35;;;7.88;;
16346;SDS011;8283;48.504;13.734;2023-12-07T13:08:15;12.75;;;8.02;;
16346;SDS011;8283;48.504;13.734;2023-12-07T13:10:35;12.88;;;7.50;;
16346;SDS011;8283;48.504;13.734;2023-12-07T13:12:54;13.02;;;7.90;;
16346;SDS011;8283;48.504;13.734;2023-12-07T13:15:15;11.75;;;7.75;;
16346;SDS011;8283;48.504;13.734;2023-12-07T13:17:34;13.88;;;8.20;;
16346;SDS011;8283;48.504;13.734;2023-12-07T13:19:53;12.25;;;7.63;;
16346;SDS011;8283;48.504;13.734;2023-12-07T13:22:13;10.98;;;7.05;;
16346;SDS011;8283;48.504;13.734;2023-12-07T13:24:32;12.35;;;7.28;;
16346;SDS011;8283;48.504;13.734;2023-12-07T13:26:51;11.20;;;7.07;;
16346;SDS011;8283;48.504;13.734;2023-12-07T13:29:10;14.52;;;7.20;;
16346;SDS011;8283;48.504;13.734;2023-12-07T13:31:30;12.10;;;6.88;;
16346;SDS011;8283;48.504;13.734;2023-12-07T13:33:50;13.70;;;8.13;;
16346;SDS011;8283;48.504;13.734;2023-12-07T13:36:09;15.02;;;8.10;;
16346;SDS011;8283;48.504;13.734;2023-12-07T13:38:28;13.10;;;7.63;;
16346;SDS011;8283;48.504;13.734;2023-12-07T13:40:50;12.88;;;7.57;;
16346;SDS011;8283;48.504;13.734;2023-12-07T13:43:09;12.65;;;7.40;;
16346;SDS011;8283;48.504;13.734;2023-12-07T13:45:28;16.63;;;9.07;;
16346;SDS011;8283;48.504;13.734;2023-12-07T13:47:47;15.02;;;9.07;;
16346;SDS011;8283;48.504;13.734;2023-12-07T13:50:07;12.65;;;7.85;;
16346;SDS011;8283;48.504;13.734;2023-12-07T13:52:26;17.83;;;8.00;;
16346;SDS011;8283;48.504;13.734;2023-12-07T13:54:47;13.38;;;7.55;;
16346;SDS011;8283;48.504;13.734;2023-12-07T13:57:07;13.07;;;8.18;;
16346;SDS011;8283;48.504;13.734;2023-12-07T13:59:26;15.77;;;7.80;;
16346;SDS011;8283;48.504;13.734;2023-12-07T14:01:45;8.93;;;5.70;;
16346;SDS011;8283;48.504;13.734;2023-12-07T14:04:06;10.30;;;5.38;;
16346;SDS011;8283;48.504;13.734;2023-12-07T14:06:26;11.00;;;5.90;;
16346;SDS011;8283;48.504;13.734;2023-12-07T14:08:46;10.25;;;5.38;;
16346;SDS011;8283;48.504;13.734;2023-12-07T14:11:05;9.50;;;5.75;;
16346;SDS011;8283;48.504;13.734;2023-12-07T14:13:24;10.05;;;5.95;;
16346;SDS011;8283;48.504;13.734;2023-12-07T14:15:44;10.57;;;6.40;;